Armony — 5IM517 — position and weather

sailwx.info

Track history (hours):
 
Tides and Currents Weather Stations Pressure Air Temp Water Temp Dewpoint Dewpoint Depression Visibility Wind Speed Wind Dir Waves Ship Positions

Armony

Last reported at 2015-Mar-28 04:31 UTC. Time now 2015-Mar-28 11:02 UTC.
Position N 40°44' E 029°42'.

Length 70 m; draft 6.6 m.

Type: Ship. MMSI: 677041700.

Date/timePositionNaut miles runAvg speedWind from/ knotsBaromVisibWave heightAir tempDewpointWater temp
2015-Mar-28 04:31N 40°44' E 029°42'9 7.2
2015-Mar-28 03:17N 40°45' E 029°30'6 6.9
2015-Mar-28 02:28N 40°44' E 029°23'6 6.5
2015-Mar-28 01:33N 40°45' E 029°15'6 5.9
2015-Mar-28 00:33N 40°47' E 029°08'6 5.9
2015-Mar-27 23:33N 40°50' E 029°01'6 5.9
2015-Mar-27 22:31N 40°54' E 028°56'7 7.2
2015-Mar-27 21:30N 41°01' E 028°60'16 0.6
2015-Mar-26 21:25N 41°16' E 029°03'0 0.0
2015-Mar-26 19:19N 41°16' E 029°02'0 0.0
2015-Mar-26 18:28N 41°16' E 029°02'0 0.0
2015-Mar-26 17:31N 41°16' E 029°02'0 0.0
2015-Mar-26 16:31N 41°16' E 029°02'0 0.0
2015-Mar-26 15:31N 41°16' E 029°02'  
Track history (hours):
 
Tides and Currents Weather Stations Pressure Air Temp Water Temp Dewpoint Dewpoint Depression Visibility Wind Speed Wind Dir Waves Ship Positions

Armony

Last reported at 2015-Mar-28 04:31 UTC. Time now 2015-Mar-28 11:02 UTC.
Position N 40°44' E 029°42'.

Length 70 m; draft 6.6 m.

Type: Ship. MMSI: 677041700.

Date/timePositionNaut miles runAvg speedWind from/ knotsBaromVisibWave heightAir tempDewpointWater temp
2015-Mar-28 04:31N 40°44' E 029°42'9 7.2
2015-Mar-28 03:17N 40°45' E 029°30'6 6.9
2015-Mar-28 02:28N 40°44' E 029°23'6 6.5
2015-Mar-28 01:33N 40°45' E 029°15'6 5.9
2015-Mar-28 00:33N 40°47' E 029°08'6 5.9
2015-Mar-27 23:33N 40°50' E 029°01'6 5.9
2015-Mar-27 22:31N 40°54' E 028°56'7 7.2
2015-Mar-27 21:30N 41°01' E 028°60'16 0.6
2015-Mar-26 21:25N 41°16' E 029°03'0 0.0
2015-Mar-26 19:19N 41°16' E 029°02'0 0.0
2015-Mar-26 18:28N 41°16' E 029°02'0 0.0
2015-Mar-26 17:31N 41°16' E 029°02'0 0.0
2015-Mar-26 16:31N 41°16' E 029°02'0 0.0
2015-Mar-26 15:31N 41°16' E 029°02'  

Dump ship's entire track history